Time;durP1;ratioP1;P1;durP2;ratioP2;P2;SDS_P1;SDS_P2;PMS_P1;PMS_P2;Temp;Humidity;BMP_temperature;BMP_pressure;BME280_temperature;BME280_humidity;BME280_pressure;Samples;Min_cycle;Max_cycle;Signal;HPM_P1;HPM_P2
2024/02/03 00:02:12;;;;;;;12.88;7.75;;;;;;;;;;5080720;28;20028;-76
2024/02/03 00:04:39;;;;;;;17.20;7.80;;;5.90;99.90;;;;;;5080704;28;20272;-76
2024/02/03 00:07:05;;;;;;;10.80;6.80;;;;;;;;;;5075016;28;20083;-76
2024/02/03 00:09:30;;;;;;;15.13;7.07;;;6.10;99.90;;;;;;5061461;28;20324;-80
2024/02/03 00:11:56;;;;;;;11.68;7.43;;;6.20;99.90;;;;;;5065640;28;20027;-77
2024/02/03 00:14:22;;;;;;;11.25;7.07;;;;;;;;;;5061337;28;20059;-80
2024/02/03 00:16:48;;;;;;;14.15;7.70;;;;;;;;;;5061916;28;20021;-80
2024/02/03 00:19:14;;;;;;;14.90;9.00;;;;;;;;;;5063226;28;20021;-79
2024/02/03 00:21:40;;;;;;;13.15;6.80;;;;;;;;;;5065170;28;20071;-80
2024/02/03 00:24:06;;;;;;;10.05;5.88;;;6.20;99.90;;;;;;5064486;28;20032;-73
2024/02/03 00:26:32;;;;;;;12.60;7.15;;;;;;;;;;5064078;28;20050;-76
2024/02/03 00:28:58;;;;;;;11.30;7.15;;;;;;;;;;5064076;28;20048;-75
2024/02/03 00:31:23;;;;;;;12.95;8.35;;;6.50;99.90;;;;;;5070668;28;20204;-76
2024/02/03 00:33:49;;;;;;;11.40;6.13;;;;;;;;;;5078652;28;20104;-76
2024/02/03 00:36:22;;;;;;;12.43;6.88;;;6.40;99.90;;;;;;5066474;28;20106;-77
2024/02/03 00:38:48;;;;;;;12.98;7.60;;;;;;;;;;5083453;28;20028;-76
2024/02/03 00:41:14;;;;;;;12.82;7.22;;;;;;;;;;5083646;28;20209;-71
2024/02/03 00:43:40;;;;;;;10.77;6.13;;;;;;;;;;5083820;28;20024;-75
2024/02/03 00:46:06;;;;;;;16.38;8.18;;;;;;;;;;5083603;28;20366;-76
2024/02/03 00:48:32;;;;;;;11.55;6.88;;;6.50;99.90;;;;;;5083782;28;20067;-75
2024/02/03 00:50:57;;;;;;;11.70;7.68;;;6.60;99.90;;;;;;5083308;28;20021;-75
2024/02/03 00:53:23;;;;;;;15.82;8.50;;;;;;;;;;5083311;28;20043;-77
2024/02/03 00:55:49;;;;;;;13.82;7.93;;;;;;;;;;5083255;28;20023;-77
2024/02/03 00:58:15;;;;;;;13.82;8.38;;;6.40;96.70;;;;;;5083205;28;20032;-76
2024/02/03 01:00:41;;;;;;;10.07;5.75;;;6.50;99.90;;;;;;5083067;28;20224;-71
2024/02/03 01:03:06;;;;;;;13.48;8.52;;;6.40;98.70;;;;;;5083207;28;20317;-69
2024/02/03 01:05:32;;;;;;;17.00;8.70;;;6.40;99.90;;;;;;5082979;28;20020;-69
2024/02/03 01:07:58;;;;;;;16.50;8.73;;;6.40;99.90;;;;;;5086206;28;20039;-69
2024/02/03 01:10:23;;;;;;;16.80;9.07;;;6.30;99.90;;;;;;5103232;28;20023;-70
2024/02/03 01:12:49;;;;;;;17.45;8.93;;;;;;;;;;5103149;28;20039;-71
2024/02/03 01:15:15;;;;;;;17.27;10.13;;;;;;;;;;5102944;28;20282;-71
2024/02/03 01:17:41;;;;;;;13.63;8.98;;;6.30;99.90;;;;;;5103071;28;20258;-71
2024/02/03 01:20:07;;;;;;;17.02;10.05;;;;;;;;;;5103028;28;20028;-70
2024/02/03 01:22:33;;;;;;;15.82;8.80;;;6.40;99.90;;;;;;5102796;28;20024;-71
2024/02/03 01:24:59;;;;;;;19.23;9.07;;;;;;;;;;5102877;28;20134;-71
2024/02/03 01:27:25;;;;;;;12.45;7.70;;;6.60;99.90;;;;;;5093265;28;20042;-71
2024/02/03 01:29:51;;;;;;;12.40;8.25;;;;;;;;;;5101851;28;20031;-71
2024/02/03 01:32:17;;;;;;;14.65;8.05;;;;;;;;;;5102758;28;20059;-71
2024/02/03 01:34:43;;;;;;;10.65;6.57;;;6.90;99.90;;;;;;5102755;28;20058;-71
2024/02/03 01:37:08;;;;;;;14.27;7.20;;;6.90;99.90;;;;;;5102789;28;20311;-71
2024/02/03 01:39:34;;;;;;;19.38;7.85;;;7.10;99.80;;;;;;5102538;28;20379;-71
2024/02/03 01:42:00;;;;;;;17.30;8.05;;;7.30;99.40;;;;;;5088347;28;20093;-71
2024/02/03 01:44:30;;;;;;;15.55;9.20;;;7.20;98.80;;;;;;5082152;28;20016;-71
2024/02/03 01:46:55;;;;;;;15.57;9.57;;;7.20;98.40;;;;;;5082270;28;20065;-70
2024/02/03 01:49:22;;;;;;;15.18;6.95;;;;;;;;;;5082041;28;20060;-71
2024/02/03 01:51:47;;;;;;;12.27;7.95;;;7.30;88.90;;;;;;5082280;28;20032;-70
2024/02/03 01:54:14;;;;;;;14.38;8.38;;;7.20;97.30;;;;;;5082212;28;20023;-70
2024/02/03 01:56:42;;;;;;;11.55;7.47;;;7.40;96.80;;;;;;5079837;28;20020;-72
2024/02/03 01:59:09;;;;;;;13.68;7.80;;;7.60;95.80;;;;;;5098006;28;20027;-72
2024/02/03 02:01:35;;;;;;;13.50;8.75;;;7.50;96.70;;;;;;5102293;28;20024;-72
2024/02/03 02:04:01;;;;;;;12.43;8.13;;;;;;;;;;5102040;28;20092;-72
2024/02/03 02:06:27;;;;;;;14.82;8.48;;;;;;;;;;5100951;28;20067;-72
2024/02/03 02:08:52;;;;;;;15.15;8.30;;;7.50;96.80;;;;;;5102721;28;20043;-72
2024/02/03 02:11:21;;;;;;;14.02;8.23;;;;;;;;;;5102093;28;20050;-71
2024/02/03 02:13:46;;;;;;;12.07;7.32;;;7.60;88.30;;;;;;5102049;28;20083;-72
2024/02/03 02:16:12;;;;;;;14.30;8.57;;;7.60;95.10;;;;;;5092790;28;20027;-72
2024/02/03 02:18:38;;;;;;;15.70;8.75;;;7.40;96.80;;;;;;5102071;28;20405;-72
2024/02/03 02:21:03;;;;;;;14.98;8.38;;;7.20;91.10;;;;;;5101701;28;20020;-72
2024/02/03 02:23:29;;;;;;;15.70;8.48;;;7.50;96.60;;;;;;5102015;28;20065;-72
2024/02/03 02:25:57;;;;;;;15.20;8.85;;;7.50;89.50;;;;;;5101663;28;20300;-72
2024/02/03 02:28:23;;;;;;;16.95;8.90;;;7.30;93.90;;;;;;5101558;28;20385;-72
2024/02/03 02:30:49;;;;;;;14.55;8.57;;;7.40;92.60;;;;;;5101853;28;20024;-71
2024/02/03 02:33:15;;;;;;;12.65;7.95;;;7.50;94.70;;;;;;5101364;28;20075;-72
2024/02/03 02:35:41;;;;;;;14.00;7.72;;;;;;;;;;5092005;28;20091;-71
2024/02/03 02:38:07;;;;;;;16.38;8.70;;;7.60;96.30;;;;;;5101354;28;20052;-72
2024/02/03 02:40:33;;;;;;;15.80;7.72;;;7.60;96.10;;;;;;5101227;28;20352;-72
2024/02/03 02:42:59;;;;;;;12.57;7.40;;;7.60;96.00;;;;;;5101636;28;20027;-72
2024/02/03 02:45:25;;;;;;;11.65;7.22;;;7.60;96.00;;;;;;5101638;28;20058;-71
2024/02/03 02:47:51;;;;;;;11.93;6.72;;;;;;;;;;5101476;28;20093;-71
2024/02/03 02:50:16;;;;;;;12.68;6.70;;;7.60;96.00;;;;;;5101296;28;20024;-71
2024/02/03 02:52:42;;;;;;;18.40;7.95;;;8.00;96.20;;;;;;5101171;28;20065;-71
2024/02/03 02:55:09;;;;;;;13.68;8.25;;;;;;;;;;5101155;28;20020;-71
2024/02/03 02:57:34;;;;;;;12.18;7.28;;;;;;;;;;5101213;28;20352;-71
2024/02/03 03:00:02;;;;;;;13.95;7.50;;;;;;;;;;5100037;28;20032;-71
2024/02/03 03:02:28;;;;;;;11.57;7.18;;;;;;;;;;5101392;28;20024;-71
2024/02/03 03:04:54;;;;;;;15.07;8.18;;;;;;;;;;5101146;28;20036;-71
2024/02/03 03:07:23;;;;;;;10.82;7.15;;;;;;;;;;5100904;28;20027;-71
2024/02/03 03:09:49;;;;;;;12.25;6.50;;;7.70;96.20;;;;;;5101306;28;20020;-72
2024/02/03 03:12:15;;;;;;;9.85;6.05;;;7.70;92.50;;;;;;5100941;28;20024;-72
2024/02/03 03:14:40;;;;;;;7.25;4.15;;;8.10;96.50;;;;;;5099891;28;20028;-72
2024/02/03 03:17:08;;;;;;;4.63;3.38;;;;;;;;;;5101148;28;20078;-72
2024/02/03 03:19:37;;;;;;;5.80;3.67;;;5.80;85.00;;;;;;5099665;28;20200;-73
2024/02/03 03:22:03;;;;;;;5.03;2.60;;;;;;;;;;5100969;28;20024;-73
2024/02/03 03:24:29;;;;;;;3.47;2.75;;;;;;;;;;5100927;28;20051;-71
2024/02/03 03:26:55;;;;;;;4.97;2.70;;;;;;;;;;5100965;28;20047;-72
2024/02/03 03:29:21;;;;;;;4.38;2.13;;;;;;;;;;5100869;28;20059;-72
2024/02/03 03:31:47;;;;;;;2.40;1.90;;;8.10;96.70;;;;;;5100850;28;20044;-72
2024/02/03 03:34:13;;;;;;;3.95;2.47;;;;;;;;;;5100904;28;20028;-73
2024/02/03 03:36:38;;;;;;;3.88;1.98;;;8.40;96.60;;;;;;5090957;28;20020;-72
2024/02/03 03:39:04;;;;;;;6.55;2.83;;;8.40;90.60;;;;;;5101123;28;20031;-73
2024/02/03 03:41:30;;;;;;;5.18;3.22;;;;;;;;;;5100807;28;20554;-72
2024/02/03 03:43:55;;;;;;;4.45;2.95;;;8.40;92.30;;;;;;5099532;28;20453;-72
2024/02/03 03:46:21;;;;;;;4.63;3.17;;;8.50;93.90;;;;;;5100841;28;20042;-71
2024/02/03 03:48:47;;;;;;;4.38;2.00;;;8.50;91.20;;;;;;5100762;28;20028;-71
2024/02/03 03:51:12;;;;;;;4.90;3.42;;;8.50;96.30;;;;;;5091065;28;20016;-72
2024/02/03 03:53:38;;;;;;;4.43;2.55;;;;;;;;;;5102482;28;20032;-71
2024/02/03 03:56:06;;;;;;;6.05;3.28;;;8.50;91.30;;;;;;5104539;28;20570;-71
2024/02/03 03:58:31;;;;;;;5.63;3.63;;;8.50;96.20;;;;;;5104586;28;20019;-71
2024/02/03 04:00:57;;;;;;;5.03;3.30;;;8.50;96.10;;;;;;5104690;28;20197;-71
2024/02/03 04:03:23;;;;;;;7.35;3.80;;;8.50;96.20;;;;;;5104473;28;20047;-71
2024/02/03 04:05:49;;;;;;;7.55;4.47;;;;;;;;;;5104423;28;20320;-71
2024/02/03 04:08:15;;;;;;;6.78;3.70;;;;;;;;;;5094501;28;20278;-71
2024/02/03 04:10:40;;;;;;;8.80;3.40;;;8.40;96.40;;;;;;5104548;28;20012;-71
2024/02/03 04:13:06;;;;;;;8.10;3.42;;;;;;;;;;5103040;28;20095;-71
2024/02/03 04:15:32;;;;;;;6.57;3.65;;;8.50;96.90;;;;;;5104402;28;20327;-71
2024/02/03 04:17:58;;;;;;;5.90;3.70;;;8.10;97.00;;;;;;5104091;28;20012;-69
2024/02/03 04:20:28;;;;;;;5.25;3.30;;;8.20;97.00;;;;;;5104110;28;20024;-71
2024/02/03 04:22:53;;;;;;;7.90;4.90;;;8.40;97.20;;;;;;5091922;28;20032;-72
2024/02/03 04:25:19;;;;;;;6.53;4.60;;;;;;;;;;5104049;28;20265;-72
2024/02/03 04:27:45;;;;;;;7.85;4.30;;;;;;;;;;5103910;28;20032;-76
2024/02/03 04:30:12;;;;;;;9.80;4.88;;;8.30;87.60;;;;;;5103875;28;20079;-71
2024/02/03 04:32:37;;;;;;;5.28;3.58;;;8.30;94.50;;;;;;5103743;28;20047;-73
2024/02/03 04:35:05;;;;;;;9.07;5.10;;;8.30;92.90;;;;;;5103836;28;20079;-71
2024/02/03 04:37:31;;;;;;;5.85;3.13;;;;;;;;;;5103654;28;20095;-69
2024/02/03 04:39:58;;;;;;;5.72;4.03;;;;;;;;;;5094407;28;20032;-69
2024/02/03 04:42:24;;;;;;;6.38;3.95;;;8.20;98.20;;;;;;5103909;28;20047;-71
2024/02/03 04:44:50;;;;;;;8.68;4.72;;;;;;;;;;5103807;28;20035;-72
2024/02/03 04:47:16;;;;;;;5.70;4.13;;;;;;;;;;5103612;28;20038;-71
2024/02/03 04:49:42;;;;;;;4.93;2.92;;;;;;;;;;5103688;28;20323;-72
2024/02/03 04:52:08;;;;;;;5.53;3.63;;;;;;;;;;5103653;28;20055;-76
2024/02/03 04:54:33;;;;;;;7.15;3.80;;;8.20;98.90;;;;;;5094198;28;20047;-75
2024/02/03 04:56:59;;;;;;;8.10;3.05;;;8.60;99.00;;;;;;5102342;28;20221;-73
2024/02/03 04:59:25;;;;;;;7.25;4.05;;;;;;;;;;5103582;28;20051;-73
2024/02/03 05:01:51;;;;;;;7.43;4.82;;;;;;;;;;5103328;28;20024;-72
2024/02/03 05:04:17;;;;;;;5.93;3.08;;;8.10;99.00;;;;;;5103334;28;20020;-73
2024/02/03 05:06:43;;;;;;;5.93;4.03;;;;;;;;;;5103195;28;20031;-71
2024/02/03 05:09:09;;;;;;;4.15;3.08;;;;;;;;;;5102375;28;20327;-72
2024/02/03 05:11:35;;;;;;;5.88;3.45;;;8.10;99.30;;;;;;5094583;28;20070;-71
2024/02/03 05:14:01;;;;;;;5.72;3.70;;;8.30;99.40;;;;;;5103066;28;20345;-71
2024/02/03 05:16:27;;;;;;;4.10;2.92;;;;;;;;;;5103005;28;20027;-72
2024/02/03 05:18:53;;;;;;;7.88;3.80;;;8.20;90.50;;;;;;5103201;28;20028;-75
2024/02/03 05:21:19;;;;;;;6.50;4.00;;;;;;;;;;5103087;28;20127;-74
2024/02/03 05:23:45;;;;;;;8.82;4.50;;;8.20;99.30;;;;;;5103134;28;20019;-72
2024/02/03 05:26:11;;;;;;;8.10;4.50;;;8.30;92.90;;;;;;5102748;28;20222;-72
2024/02/03 05:28:37;;;;;;;6.45;4.63;;;;;;;;;;5102700;28;20067;-72
2024/02/03 05:31:02;;;;;;;6.88;5.07;;;8.10;99.20;;;;;;5103033;28;20039;-71
2024/02/03 05:33:30;;;;;;;8.38;4.45;;;8.20;99.20;;;;;;5102637;28;20066;-70
2024/02/03 05:35:56;;;;;;;9.85;5.28;;;;;;;;;;5102649;28;20060;-68
2024/02/03 05:38:22;;;;;;;7.50;4.60;;;;;;;;;;5102234;28;20639;-70
2024/02/03 05:40:48;;;;;;;7.35;4.38;;;8.30;96.10;;;;;;5102591;28;20016;-69
2024/02/03 05:43:14;;;;;;;6.90;4.20;;;;;;;;;;5102619;28;20047;-70
2024/02/03 05:45:39;;;;;;;5.30;3.20;;;8.30;99.50;;;;;;5102563;28;20020;-70
2024/02/03 05:48:06;;;;;;;4.72;3.00;;;8.10;99.80;;;;;;5102386;28;20035;-70
2024/02/03 05:50:32;;;;;;;4.47;3.10;;;;;;;;;;5102413;28;20031;-72
2024/02/03 05:52:58;;;;;;;6.30;3.47;;;8.60;99.90;;;;;;5102619;28;20020;-71
2024/02/03 05:55:24;;;;;;;8.13;3.80;;;;;;;;;;5102267;28;20215;-72
2024/02/03 05:57:54;;;;;;;7.45;4.18;;;8.10;99.90;;;;;;5101710;28;20045;-71
2024/02/03 06:00:20;;;;;;;5.53;3.72;;;;;;;;;;5101495;28;20024;-72
2024/02/03 06:02:47;;;;;;;5.75;2.95;;;;;;;;;;5101542;28;20104;-72
2024/02/03 06:05:13;;;;;;;3.13;2.13;;;8.10;92.00;;;;;;5101482;28;20024;-71
2024/02/03 06:07:39;;;;;;;4.63;2.08;;;;;;;;;;5101410;28;20095;-71
2024/02/03 06:10:06;;;;;;;4.35;3.08;;;8.20;99.90;;;;;;5101432;28;20031;-71
2024/02/03 06:12:32;;;;;;;4.32;2.35;;;;;;;;;;5092052;28;20023;-68
2024/02/03 06:14:57;;;;;;;4.38;2.58;;;8.00;95.50;;;;;;5101979;28;20031;-69
2024/02/03 06:17:23;;;;;;;3.42;2.13;;;;;;;;;;5101406;28;20045;-70
2024/02/03 06:19:50;;;;;;;6.60;2.95;;;8.20;91.40;;;;;;5102225;28;20035;-70
2024/02/03 06:22:16;;;;;;;3.88;2.78;;;8.30;99.90;;;;;;5101943;28;20045;-69
2024/02/03 06:24:42;;;;;;;4.45;3.03;;;8.30;99.90;;;;;;5101863;28;20028;-69
2024/02/03 06:27:07;;;;;;;6.53;2.53;;;8.60;98.60;;;;;;5101882;28;20077;-72
2024/02/03 06:29:33;;;;;;;4.85;2.55;;;8.60;94.50;;;;;;5091542;28;20040;-71
2024/02/03 06:31:59;;;;;;;2.33;1.40;;;8.40;99.50;;;;;;5068323;28;20502;-72
2024/02/03 06:34:25;;;;;;;3.22;1.92;;;8.40;93.00;;;;;;5067041;28;20313;-70
2024/02/03 06:36:50;;;;;;;3.38;2.38;;;8.20;91.00;;;;;;5069025;28;20044;-70
2024/02/03 06:39:16;;;;;;;3.90;2.67;;;8.40;99.10;;;;;;5063386;28;20020;-71
2024/02/03 06:41:42;;;;;;;2.00;1.58;;;8.50;99.00;;;;;;5081551;28;20081;-72
2024/02/03 06:44:10;;;;;;;6.15;2.83;;;;;;;;;;5081254;28;20076;-71
2024/02/03 06:46:36;;;;;;;2.83;2.00;;;8.70;98.80;;;;;;5081253;28;20052;-72
2024/02/03 06:49:01;;;;;;;5.95;3.35;;;8.50;98.90;;;;;;5081215;28;20025;-71
2024/02/03 06:51:27;;;;;;;4.25;2.72;;;8.50;98.90;;;;;;5081165;28;20092;-72
2024/02/03 06:53:53;;;;;;;5.78;2.40;;;8.50;98.80;;;;;;5080991;28;20033;-71
2024/02/03 06:56:19;;;;;;;7.00;3.25;;;;;;;;;;5081331;28;20029;-72
2024/02/03 06:58:46;;;;;;;1.58;1.25;;;8.40;97.40;;;;;;5081196;28;20051;-71
2024/02/03 07:01:12;;;;;;;6.40;2.28;;;8.70;98.70;;;;;;5081310;28;20093;-71
2024/02/03 07:03:38;;;;;;;3.97;2.17;;;;;;;;;;5081094;28;20032;-71
2024/02/03 07:06:04;;;;;;;3.35;2.03;;;;;;;;;;5080987;28;20032;-72
2024/02/03 07:08:30;;;;;;;3.50;2.05;;;8.40;98.70;;;;;;5080983;28;20048;-69
2024/02/03 07:10:56;;;;;;;5.00;2.53;;;8.50;94.40;;;;;;5080991;28;20220;-68
2024/02/03 07:13:22;;;;;;;4.88;2.63;;;8.50;98.70;;;;;;5080975;28;20028;-68
2024/02/03 07:15:49;;;;;;;3.67;2.65;;;8.20;89.60;;;;;;5079774;28;20087;-72
2024/02/03 07:18:15;;;;;;;2.20;1.63;;;8.40;97.10;;;;;;5081150;28;20039;-71
2024/02/03 07:20:41;;;;;;;2.83;1.98;;;;;;;;;;5080941;28;20021;-72
2024/02/03 07:23:06;;;;;;;5.35;3.03;;;8.50;98.80;;;;;;5080925;28;20312;-71
2024/02/03 07:25:32;;;;;;;3.95;2.50;;;8.40;98.90;;;;;;5080932;28;20051;-71
2024/02/03 07:27:58;;;;;;;4.28;2.67;;;8.40;98.00;;;;;;5081690;28;20040;-71
2024/02/03 07:30:24;;;;;;;4.43;3.05;;;8.50;98.90;;;;;;5085001;28;20029;-72
2024/02/03 07:32:51;;;;;;;4.30;2.88;;;8.50;98.80;;;;;;5084684;28;20244;-72
2024/02/03 07:35:17;;;;;;;4.05;2.80;;;;;;;;;;5084719;28;20024;-71
2024/02/03 07:37:42;;;;;;;3.03;2.63;;;8.60;98.50;;;;;;5084637;28;20009;-71
2024/02/03 07:40:09;;;;;;;4.20;2.75;;;8.50;89.40;;;;;;5084879;28;20023;-71
2024/02/03 07:42:35;;;;;;;4.03;3.13;;;8.60;98.20;;;;;;5084493;28;20058;-71
2024/02/03 07:45:01;;;;;;;4.22;2.92;;;;;;;;;;5084547;28;20208;-69
2024/02/03 07:47:27;;;;;;;5.45;3.00;;;;;;;;;;5084445;28;20036;-70
2024/02/03 07:49:53;;;;;;;4.97;3.17;;;8.60;98.10;;;;;;5083331;28;20062;-72
2024/02/03 07:52:20;;;;;;;2.97;2.47;;;8.70;97.90;;;;;;5084294;28;20012;-71
2024/02/03 07:54:46;;;;;;;4.13;2.75;;;8.60;97.70;;;;;;5084408;28;20232;-69
2024/02/03 07:57:12;;;;;;;5.43;3.42;;;;;;;;;;5084295;28;20016;-71
2024/02/03 07:59:38;;;;;;;4.95;3.22;;;8.70;87.80;;;;;;5084206;28;20038;-69
2024/02/03 08:02:05;;;;;;;7.22;3.30;;;;;;;;;;5084254;28;20020;-70
2024/02/03 08:04:31;;;;;;;4.90;3.17;;;;;;;;;;5082898;28;20025;-72
2024/02/03 08:06:56;;;;;;;5.72;3.55;;;9.10;97.50;;;;;;5084148;28;20498;-71
2024/02/03 08:09:22;;;;;;;5.00;3.50;;;;;;;;;;5084106;28;20064;-71
2024/02/03 08:11:48;;;;;;;6.25;3.58;;;8.80;97.30;;;;;;5084075;28;20017;-72
2024/02/03 08:14:14;;;;;;;6.68;4.00;;;8.90;97.10;;;;;;5091907;28;20031;-73
2024/02/03 08:16:39;;;;;;;5.28;3.83;;;8.70;92.30;;;;;;5104162;28;20032;-72
2024/02/03 08:19:05;;;;;;;5.90;4.00;;;;;;;;;;5104306;28;20032;-72
2024/02/03 08:21:31;;;;;;;4.28;2.50;;;8.60;89.60;;;;;;5104355;28;20069;-72
2024/02/03 08:23:57;;;;;;;5.70;3.33;;;8.40;97.90;;;;;;5104127;28;20028;-71
2024/02/03 08:26:23;;;;;;;6.00;3.15;;;;;;;;;;5104018;28;20020;-70
2024/02/03 08:28:48;;;;;;;5.70;3.83;;;8.40;98.50;;;;;;5103960;28;20032;-69
2024/02/03 08:31:16;;;;;;;3.70;2.85;;;8.60;98.50;;;;;;5103624;28;20018;-70
2024/02/03 08:33:42;;;;;;;4.57;2.92;;;;;;;;;;5102766;28;20051;-69
2024/02/03 08:36:08;;;;;;;3.72;2.92;;;;;;;;;;5102786;28;20332;-71
2024/02/03 08:38:34;;;;;;;4.20;2.92;;;8.70;98.00;;;;;;5101020;28;20024;-71
2024/02/03 08:40:59;;;;;;;9.82;2.38;;;8.80;97.70;;;;;;5102839;28;20616;-69
2024/02/03 08:43:25;;;;;;;3.92;3.05;;;9.00;93.50;;;;;;5102602;28;20027;-69
2024/02/03 08:45:51;;;;;;;4.38;2.92;;;;;;;;;;5102864;28;20056;-73
2024/02/03 08:48:17;;;;;;;3.17;2.53;;;;;;;;;;5102558;28;20046;-76
2024/02/03 08:50:43;;;;;;;3.90;2.58;;;;;;;;;;5102595;28;20012;-70
2024/02/03 08:53:09;;;;;;;4.18;2.70;;;9.00;96.30;;;;;;5102775;28;20024;-72
2024/02/03 08:55:35;;;;;;;11.82;3.45;;;9.10;96.20;;;;;;5102804;28;20043;-73
2024/02/03 08:58:00;;;;;;;2.55;1.80;;;9.30;92.90;;;;;;5102397;28;20015;-74
2024/02/03 09:00:26;;;;;;;4.25;2.92;;;9.20;96.10;;;;;;5102252;28;20030;-73
2024/02/03 09:02:52;;;;;;;5.95;3.00;;;;;;;;;;5102557;28;20020;-71
2024/02/03 09:05:18;;;;;;;6.70;3.28;;;9.00;93.80;;;;;;5101021;28;20020;-71
2024/02/03 09:07:44;;;;;;;3.63;2.95;;;;;;;;;;5102268;28;20032;-71
2024/02/03 09:10:10;;;;;;;5.00;2.85;;;9.10;96.40;;;;;;5102258;28;20094;-73
2024/02/03 09:12:35;;;;;;;3.03;2.17;;;9.30;96.00;;;;;;5102407;28;20020;-71
2024/02/03 09:15:01;;;;;;;4.47;2.90;;;;;;;;;;5102563;28;20028;-72
2024/02/03 09:17:27;;;;;;;2.83;1.80;;;;;;;;;;5102357;28;20030;-73
2024/02/03 09:19:54;;;;;;;3.97;2.30;;;9.50;96.20;;;;;;5102087;28;20306;-72
2024/02/03 09:22:20;;;;;;;3.92;2.40;;;9.50;95.70;;;;;;5101847;28;20020;-73
2024/02/03 09:24:46;;;;;;;4.60;2.78;;;9.10;95.80;;;;;;5102133;28;20030;-72
2024/02/03 09:27:12;;;;;;;5.32;2.78;;;9.10;84.00;;;;;;5101984;28;20027;-72
2024/02/03 09:29:41;;;;;;;4.95;2.92;;;8.80;94.00;;;;;;5083569;28;20033;-72
2024/02/03 09:32:08;;;;;;;5.50;3.25;;;9.00;92.30;;;;;;5034802;28;1148094;-72
2024/02/03 09:34:34;;;;;;;3.97;2.78;;;8.80;96.60;;;;;;5062393;28;20224;-72
2024/02/03 09:37:01;;;;;;;5.40;3.05;;;8.60;96.50;;;;;;5071086;28;20284;-72
2024/02/03 09:39:27;;;;;;;3.95;2.38;;;;;;;;;;5081146;28;20051;-72
2024/02/03 09:41:56;;;;;;;4.95;2.42;;;9.30;86.10;;;;;;5082367;28;20025;-72
2024/02/03 09:44:22;;;;;;;;;;;8.90;86.40;;;;;;5082688;28;20032;-72
2024/02/03 09:46:51;;;;;;;3.95;3.20;;;8.80;86.10;;;;;;5077128;28;19909;-72
2024/02/03 09:49:17;;;;;;;3.45;2.42;;;8.90;97.00;;;;;;5062085;28;20074;-72
2024/02/03 09:51:46;;;;;;;8.27;2.67;;;8.90;85.80;;;;;;5061277;28;20094;-72
2024/02/03 09:54:12;;;;;;;4.50;2.38;;;;;;;;;;5062287;28;20020;-72
2024/02/03 09:56:39;;;;;;;5.57;3.45;;;9.10;91.80;;;;;;5062000;28;20096;-72
2024/02/03 09:59:05;;;;;;;6.05;2.38;;;;;;;;;;5062032;28;20032;-72
2024/02/03 10:01:31;;;;;;;6.60;3.22;;;8.90;96.60;;;;;;5062039;28;20048;-72
2024/02/03 10:03:57;;;;;;;5.10;3.10;;;9.00;96.80;;;;;;5061854;28;20066;-72
2024/02/03 10:06:23;;;;;;;3.80;1.85;;;9.10;96.50;;;;;;5062059;28;20021;-72
2024/02/03 10:08:53;;;;;;;3.67;2.40;;;9.00;85.20;;;;;;5067219;28;20321;-72
2024/02/03 10:11:19;;;;;;;4.32;2.20;;;9.20;91.10;;;;;;5102035;28;20090;-71
2024/02/03 10:14:00;;;;;;;3.33;2.00;;;9.00;84.90;;;;;;5100663;28;20026;-72
2024/02/03 10:16:26;;;;;;;4.35;2.78;;;;;;;;;;5102047;28;20040;-71
2024/02/03 10:18:52;;;;;;;4.60;3.15;;;9.00;92.80;;;;;;5091290;28;20057;-72
2024/02/03 10:21:18;;;;;;;3.67;2.75;;;9.10;95.70;;;;;;5071203;28;20059;-72
2024/02/03 10:23:52;;;;;;;3.47;2.70;;;9.40;95.90;;;;;;5081242;28;20212;-71
2024/02/03 10:26:19;;;;;;;4.63;2.90;;;;;;;;;;5080065;28;20037;-72
2024/02/03 10:28:45;;;;;;;4.35;3.63;;;;;;;;;;5080188;28;20040;-72
2024/02/03 10:31:14;;;;;;;8.02;3.15;;;9.80;89.20;;;;;;5081187;28;20020;-72
2024/02/03 10:33:40;;;;;;;3.42;2.40;;;9.40;95.10;;;;;;5081423;28;20047;-72
2024/02/03 10:36:06;;;;;;;4.15;3.08;;;9.40;95.20;;;;;;5081311;28;20243;-72
2024/02/03 10:38:31;;;;;;;5.90;3.50;;;9.50;94.60;;;;;;5063388;28;20036;-72
2024/02/03 10:40:58;;;;;;;5.80;3.40;;;9.50;81.20;;;;;;5061576;28;20017;-72
2024/02/03 10:43:27;;;;;;;4.95;2.75;;;9.50;81.50;;;;;;5061249;28;20029;-72
2024/02/03 10:46:00;;;;;;;4.70;2.50;;;9.70;94.50;;;;;;5061477;28;20044;-71
2024/02/03 10:48:28;;;;;;;2.92;1.92;;;9.40;94.10;;;;;;5076891;28;20623;-71
2024/02/03 10:51:05;;;;;;;3.88;2.17;;;9.60;94.10;;;;;;5081107;28;20032;-71
2024/02/03 10:53:46;;;;;;;4.07;3.17;;;9.70;94.00;;;;;;5081150;28;20344;-70
2024/02/03 10:56:12;;;;;;;3.92;2.30;;;9.70;93.80;;;;;;5081165;28;20032;-70
2024/02/03 10:58:40;;;;;;;4.07;2.45;;;9.70;79.60;;;;;;5081244;28;20020;-70
2024/02/03 11:01:15;;;;;;;4.40;2.53;;;9.80;94.00;;;;;;5080985;28;20076;-69
2024/02/03 11:03:41;;;;;;;3.00;2.40;;;9.70;93.80;;;;;;5081368;28;20028;-70
2024/02/03 11:06:07;;;;;;;3.97;2.70;;;9.70;93.70;;;;;;5081029;28;20035;-72
2024/02/03 11:08:34;;;;;;;5.40;3.20;;;9.80;93.90;;;;;;5080801;28;20339;-69
2024/02/03 11:10:59;;;;;;;3.38;2.50;;;9.60;90.40;;;;;;5081105;28;20024;-70
2024/02/03 11:13:27;;;;;;;3.45;2.50;;;9.80;80.40;;;;;;5080891;28;20035;-70
2024/02/03 11:16:00;;;;;;;4.20;2.30;;;9.60;93.70;;;;;;5080849;28;20284;-70
2024/02/03 11:18:27;;;;;;;2.25;1.90;;;9.70;82.60;;;;;;5080711;28;20029;-70
2024/02/03 11:21:08;;;;;;;4.90;2.75;;;9.90;93.80;;;;;;5080900;28;20017;-70
2024/02/03 11:23:35;;;;;;;4.53;3.13;;;9.70;94.00;;;;;;5080940;28;20087;-70
2024/02/03 11:26:01;;;;;;;2.50;2.13;;;9.80;80.80;;;;;;5081030;28;20020;-69
2024/02/03 11:28:34;;;;;;;3.25;2.40;;;9.80;84.60;;;;;;5079870;28;20220;-70
2024/02/03 11:31:01;;;;;;;4.28;2.15;;;9.70;91.60;;;;;;5079743;28;20339;-70
2024/02/03 11:33:29;;;;;;;7.50;3.42;;;10.00;94.20;;;;;;5079015;28;20107;-70
2024/02/03 11:36:01;;;;;;;2.72;1.80;;;9.80;94.00;;;;;;5079308;28;20040;-70
2024/02/03 11:38:26;;;;;;;2.60;1.73;;;10.10;93.90;;;;;;5079369;28;20198;-70
2024/02/03 11:40:56;;;;;;;2.63;2.00;;;9.80;80.20;;;;;;5079341;28;20066;-70
2024/02/03 11:43:23;;;;;;;3.10;1.60;;;9.70;80.10;;;;;;5079715;28;20021;-70
2024/02/03 11:45:54;;;;;;;1.65;1.30;;;9.90;94.20;;;;;;5080233;28;20036;-70
2024/02/03 11:48:19;;;;;;;2.80;2.05;;;9.80;94.20;;;;;;5080605;28;20081;-70
2024/02/03 11:50:46;;;;;;;3.92;1.80;;;9.90;94.00;;;;;;5079387;28;20316;-71
2024/02/03 11:53:25;;;;;;;3.13;2.10;;;10.20;93.60;;;;;;5080486;28;20050;-70
2024/02/03 11:55:53;;;;;;;3.53;2.13;;;;;;;;;;5080536;28;20335;-70
2024/02/03 11:58:18;;;;;;;2.35;1.67;;;9.90;84.20;;;;;;5080491;28;20100;-70
2024/02/03 12:00:44;;;;;;;2.97;1.85;;;10.00;93.80;;;;;;5080339;28;20020;-70
2024/02/03 12:03:10;;;;;;;2.58;1.95;;;10.10;93.90;;;;;;5079212;28;20024;-70
2024/02/03 12:05:35;;;;;;;3.50;2.22;;;9.90;93.50;;;;;;5080316;28;20028;-70
2024/02/03 12:08:04;;;;;;;3.70;2.00;;;10.30;93.40;;;;;;5080330;28;20044;-70
2024/02/03 12:10:30;;;;;;;2.35;1.98;;;10.00;93.20;;;;;;5080597;28;20012;-70
2024/02/03 12:13:01;;;;;;;4.20;2.30;;;10.20;93.10;;;;;;5080609;28;20108;-70
2024/02/03 12:15:26;;;;;;;3.33;2.38;;;10.30;93.00;;;;;;5083440;28;20024;-70
2024/02/03 12:17:52;;;;;;;2.67;1.83;;;;;;;;;;5084016;28;20024;-70
2024/02/03 12:20:24;;;;;;;5.85;2.45;;;10.00;92.90;;;;;;5083994;28;20059;-71
2024/02/03 12:22:55;;;;;;;3.95;1.42;;;10.30;92.80;;;;;;5083941;28;20016;-69
2024/02/03 12:25:21;;;;;;;2.60;2.20;;;10.20;92.90;;;;;;5083890;28;20266;-69
2024/02/03 12:27:47;;;;;;;1.70;1.60;;;;;;;;;;5083991;28;20056;-69
2024/02/03 12:30:21;;;;;;;2.78;2.55;;;10.40;92.70;;;;;;5084106;28;20024;-69
2024/02/03 12:32:47;;;;;;;2.65;1.52;;;10.10;92.60;;;;;;5083711;28;20135;-69
2024/02/03 12:35:14;;;;;;;3.33;2.25;;;10.20;85.40;;;;;;5083724;28;20040;-69
2024/02/03 12:37:40;;;;;;;5.40;2.03;;;10.10;92.80;;;;;;5083841;28;20035;-69
2024/02/03 12:40:09;;;;;;;2.83;2.25;;;10.20;92.80;;;;;;5083745;28;20028;-69
2024/02/03 12:42:36;;;;;;;3.00;2.20;;;10.10;83.40;;;;;;5083889;28;20295;-69
2024/02/03 12:45:03;;;;;;;1.63;1.52;;;10.20;92.90;;;;;;5083520;28;20443;-69
2024/02/03 12:47:28;;;;;;;2.78;1.80;;;10.30;92.70;;;;;;5083585;28;20024;-69
2024/02/03 12:49:54;;;;;;;2.53;2.00;;;10.30;92.90;;;;;;5082310;28;20032;-69
2024/02/03 12:52:20;;;;;;;2.50;1.50;;;10.30;92.90;;;;;;5083615;28;20024;-69
2024/02/03 12:54:46;;;;;;;2.55;1.83;;;10.10;93.00;;;;;;5083582;28;20083;-69
2024/02/03 12:57:13;;;;;;;2.97;2.08;;;10.20;92.90;;;;;;5083315;28;20332;-69
2024/02/03 12:59:39;;;;;;;3.40;2.30;;;10.20;92.70;;;;;;5083248;28;20518;-69
2024/02/03 13:02:05;;;;;;;3.92;2.25;;;10.30;92.80;;;;;;5083460;28;20029;-69
2024/02/03 13:04:31;;;;;;;3.47;2.47;;;10.10;92.70;;;;;;5083370;28;20023;-69
2024/02/03 13:06:57;;;;;;;2.10;1.65;;;10.70;92.90;;;;;;5083300;28;20021;-69
2024/02/03 13:09:22;;;;;;;3.10;1.92;;;10.30;92.70;;;;;;5083279;28;20403;-69
2024/02/03 13:11:48;;;;;;;2.40;1.92;;;10.30;77.30;;;;;;5083269;28;20029;-69
2024/02/03 13:14:14;;;;;;;3.50;2.00;;;10.30;92.40;;;;;;5083144;28;20032;-69
2024/02/03 13:16:40;;;;;;;3.08;2.00;;;;;;;;;;5082979;28;20021;-69
2024/02/03 13:19:06;;;;;;;2.40;1.70;;;;;;;;;;5082884;28;20027;-69
2024/02/03 13:21:32;;;;;;;3.65;2.42;;;10.60;92.20;;;;;;5082773;28;20017;-70